PWSweather.com
Personal Weather Stations
Station Observations

BlenheimNZ 7201

Lat: -41.5122524, Lon: 173.9699142

Elevation: 25

Station Type: WH1081

http://www.tokaanuskihire.co.nz/blenheimweather/BlenheimWeather.html

High Low Average
Temperature 65.7°F18.7°C 34.5°F1.4°C 49.8°F9.9°C
Dew Point 51.7°F10.9°C 34.3°F1.3°C 43.7°F6.5°C
Winds 11.2 mph 18.0 kmh Calm Calm 4.0 mph WSW6.4 kmh WSW
Wind Gusts 17.5 mph28.2 kmh 0.7 mph1.1 kmh 7.0 mph11.3 kmh
Humidity 99% 56% 82%
Pressure 30.39 in1029.1 mb 30.09 in1019.0 mb -
Precipitation 0.00 in0.0 mm - -
Hour Temp Dew Point Humidity Winds Wind Gusts Pressure Precip Precip Rate Daily Precip Total
12:00 AM 40.0°F4.4°C 39.8°F4.3°C 99% 2.8 mph SW4.5 kmh SW 4.5 mph7.2 kmh 30.39 in1029.1 mb 0.00 in0.0 mm 0.00 in/hr0.0 mm/hr 0.00 in0.0 mm
12:30 AM 39.2°F4.0°C 38.9°F3.8°C 99% 2.4 mph W3.9 kmh W 5.4 mph8.7 kmh 30.39 in1029.1 mb 0.00 in0.0 mm 0.00 in/hr0.0 mm/hr 0.00 in0.0 mm
01:00 AM 39.6°F4.2°C 39.3°F4.1°C 99% 4.5 mph SW7.2 kmh SW 7.6 mph12.2 kmh 30.39 in1029.1 mb 0.00 in0.0 mm 0.00 in/hr0.0 mm/hr 0.00 in0.0 mm
01:30 AM 40.5°F4.7°C 40.2°F4.6°C 99% 3.8 mph WSW6.1 kmh WSW 7.6 mph12.2 kmh 30.38 in1028.8 mb 0.00 in0.0 mm 0.00 in/hr0.0 mm/hr 0.00 in0.0 mm
02:00 AM 39.8°F4.3°C 39.5°F4.2°C 99% 2.5 mph WSW4.0 kmh WSW 5.4 mph8.7 kmh 30.37 in1028.4 mb 0.00 in0.0 mm 0.00 in/hr0.0 mm/hr 0.00 in0.0 mm
02:30 AM 39.4°F4.1°C 39.1°F3.9°C 99% 2.1 mph W3.4 kmh W 3.8 mph6.1 kmh 30.36 in1028.1 mb 0.00 in0.0 mm 0.00 in/hr0.0 mm/hr 0.00 in0.0 mm
03:00 AM 37.9°F3.3°C 37.7°F3.2°C 99% 1.6 mph W2.6 kmh W 3.8 mph6.1 kmh 30.35 in1027.8 mb 0.00 in0.0 mm 0.00 in/hr0.0 mm/hr 0.00 in0.0 mm
03:30 AM 37.1°F2.8°C 36.9°F2.7°C 99% Calm Calm 0.7 mph1.1 kmh 30.35 in1027.8 mb 0.00 in0.0 mm 0.00 in/hr0.0 mm/hr 0.00 in0.0 mm
04:00 AM 36.1°F2.3°C 35.9°F2.2°C 99% 1.6 mph SW2.6 kmh SW 3.1 mph5.0 kmh 30.33 in1027.1 mb 0.00 in0.0 mm 0.00 in/hr0.0 mm/hr 0.00 in0.0 mm
04:30 AM 36.0°F2.2°C 35.7°F2.1°C 99% 3.6 mph WSW5.8 kmh WSW 6.9 mph11.1 kmh 30.32 in1026.8 mb 0.00 in0.0 mm 0.00 in/hr0.0 mm/hr 0.00 in0.0 mm
05:00 AM 36.0°F2.2°C 35.7°F2.1°C 99% 2.2 mph W3.5 kmh W 3.8 mph6.1 kmh 30.31 in1026.4 mb 0.00 in0.0 mm 0.00 in/hr0.0 mm/hr 0.00 in0.0 mm
05:30 AM 35.4°F1.9°C 35.2°F1.8°C 99% 2.0 mph W3.2 kmh W 3.8 mph6.1 kmh 30.30 in1026.1 mb 0.00 in0.0 mm 0.00 in/hr0.0 mm/hr 0.00 in0.0 mm
06:00 AM 35.4°F1.9°C 35.2°F1.8°C 99% 0.7 mph SW1.1 kmh SW 2.2 mph3.5 kmh 30.30 in1026.1 mb 0.00 in0.0 mm 0.00 in/hr0.0 mm/hr 0.00 in0.0 mm
06:30 AM 34.8°F1.6°C 34.6°F1.4°C 99% 1.6 mph W2.6 kmh W 2.2 mph3.5 kmh 30.29 in1025.7 mb 0.00 in0.0 mm 0.00 in/hr0.0 mm/hr 0.00 in0.0 mm
07:00 AM 34.7°F1.5°C 34.4°F1.3°C 99% 1.6 mph W2.6 kmh W 3.1 mph5.0 kmh 30.28 in1025.4 mb 0.00 in0.0 mm 0.00 in/hr0.0 mm/hr 0.00 in0.0 mm
07:30 AM 34.5°F1.4°C 34.3°F1.3°C 99% 2.9 mph SW4.7 kmh SW 3.8 mph6.1 kmh 30.27 in1025.1 mb 0.00 in0.0 mm 0.00 in/hr0.0 mm/hr 0.00 in0.0 mm
08:00 AM 35.6°F2.0°C 35.3°F1.8°C 99% 3.1 mph W5.0 kmh W 4.5 mph7.2 kmh 30.27 in1025.1 mb 0.00 in0.0 mm 0.00 in/hr0.0 mm/hr 0.00 in0.0 mm
08:30 AM 37.0°F2.8°C 36.8°F2.7°C 99% 2.2 mph W3.5 kmh W 3.8 mph6.1 kmh 30.27 in1025.1 mb 0.00 in0.0 mm 0.00 in/hr0.0 mm/hr 0.00 in0.0 mm
09:00 AM 41.2°F5.1°C 41.0°F5.0°C 99% 2.1 mph W3.4 kmh W 4.5 mph7.2 kmh 30.26 in1024.7 mb 0.00 in0.0 mm 0.00 in/hr0.0 mm/hr 0.00 in0.0 mm
09:30 AM 45.9°F7.7°C 44.0°F6.7°C 93% 4.1 mph WSW6.6 kmh WSW 6.9 mph11.1 kmh 30.25 in1024.4 mb 0.00 in0.0 mm 0.00 in/hr0.0 mm/hr 0.00 in0.0 mm
10:00 AM 51.3°F10.7°C 46.7°F8.2°C 84% 3.0 mph SW4.8 kmh SW 6.0 mph9.7 kmh 30.24 in1024.0 mb 0.00 in0.0 mm 0.00 in/hr0.0 mm/hr 0.00 in0.0 mm
10:30 AM 55.1°F12.8°C 47.3°F8.5°C 75% 3.4 mph W5.5 kmh W 5.4 mph8.7 kmh 30.23 in1023.7 mb 0.00 in0.0 mm 0.00 in/hr0.0 mm/hr 0.00 in0.0 mm
11:00 AM 58.8°F14.9°C 49.0°F9.4°C 70% 2.1 mph SW3.4 kmh SW 7.6 mph12.2 kmh 30.22 in1023.4 mb 0.00 in0.0 mm 0.00 in/hr0.0 mm/hr 0.00 in0.0 mm
11:30 AM 60.8°F16.0°C 48.5°F9.2°C 64% 1.8 mph W2.9 kmh W 5.4 mph8.7 kmh 30.20 in1022.7 mb 0.00 in0.0 mm 0.00 in/hr0.0 mm/hr 0.00 in0.0 mm
12:00 PM 63.2°F17.3°C 49.6°F9.8°C 61% 1.9 mph WSW3.1 kmh WSW 3.8 mph6.1 kmh 30.18 in1022.0 mb 0.00 in0.0 mm 0.00 in/hr0.0 mm/hr 0.00 in0.0 mm
12:30 PM 64.7°F18.2°C 50.5°F10.3°C 60% 3.3 mph WNW5.3 kmh WNW 6.0 mph9.7 kmh 30.16 in1021.3 mb 0.00 in0.0 mm 0.00 in/hr0.0 mm/hr 0.00 in0.0 mm
01:00 PM 64.4°F18.0°C 50.7°F10.4°C 61% 7.6 mph 12.2 kmh 13.0 mph20.9 kmh 30.15 in1021.0 mb 0.00 in0.0 mm 0.00 in/hr0.0 mm/hr 0.00 in0.0 mm
01:30 PM 64.2°F17.9°C 50.9°F10.5°C 62% 11.2 mph N18.0 kmh N 17.5 mph28.2 kmh 30.14 in1020.7 mb 0.00 in0.0 mm 0.00 in/hr0.0 mm/hr 0.00 in0.0 mm
02:00 PM 64.1°F17.8°C 51.7°F10.9°C 64% 8.7 mph NNW14.0 kmh NNW 13.0 mph20.9 kmh 30.13 in1020.3 mb 0.00 in0.0 mm 0.00 in/hr0.0 mm/hr 0.00 in0.0 mm
02:30 PM 64.9°F18.3°C 51.6°F10.9°C 62% 4.3 mph NW6.9 kmh NW 13.0 mph20.9 kmh 30.12 in1020.0 mb 0.00 in0.0 mm 0.00 in/hr0.0 mm/hr 0.00 in0.0 mm
03:00 PM 65.7°F18.7°C 49.5°F9.7°C 56% 3.4 mph NW5.5 kmh NW 10.7 mph17.2 kmh 30.12 in1020.0 mb 0.00 in0.0 mm 0.00 in/hr0.0 mm/hr 0.00 in0.0 mm
03:30 PM 64.4°F18.0°C 48.4°F9.1°C 56% 8.9 mph W14.3 kmh W 15.9 mph25.6 kmh 30.11 in1019.6 mb 0.00 in0.0 mm 0.00 in/hr0.0 mm/hr 0.00 in0.0 mm
04:00 PM 64.4°F18.0°C 48.4°F9.1°C 56% 4.3 mph NW6.9 kmh NW 8.3 mph13.4 kmh 30.10 in1019.3 mb 0.00 in0.0 mm 0.00 in/hr0.0 mm/hr 0.00 in0.0 mm
04:30 PM 63.7°F17.6°C 48.2°F9.0°C 57% 4.5 mph SW7.2 kmh SW 6.0 mph9.7 kmh 30.09 in1019.0 mb 0.00 in0.0 mm 0.00 in/hr0.0 mm/hr 0.00 in0.0 mm
05:00 PM 61.7°F16.5°C 47.7°F8.7°C 60% 5.4 mph WNW8.7 kmh WNW 11.4 mph18.3 kmh 30.09 in1019.0 mb 0.00 in0.0 mm 0.00 in/hr0.0 mm/hr 0.00 in0.0 mm
05:30 PM 58.8°F14.9°C 47.9°F8.8°C 67% 6.0 mph WNW9.7 kmh WNW 11.4 mph18.3 kmh 30.09 in1019.0 mb 0.00 in0.0 mm 0.00 in/hr0.0 mm/hr 0.00 in0.0 mm
06:00 PM 58.1°F14.5°C 48.0°F8.9°C 69% 6.5 mph NW10.5 kmh NW 11.4 mph18.3 kmh 30.09 in1019.0 mb 0.00 in0.0 mm 0.00 in/hr0.0 mm/hr 0.00 in0.0 mm
06:30 PM 57.2°F14.0°C 47.9°F8.8°C 71% 4.8 mph W7.7 kmh W 8.3 mph13.4 kmh 30.10 in1019.3 mb 0.00 in0.0 mm 0.00 in/hr0.0 mm/hr 0.00 in0.0 mm
07:00 PM 56.1°F13.4°C 47.9°F8.8°C 74% 3.1 mph W5.0 kmh W 6.9 mph11.1 kmh 30.09 in1019.0 mb 0.00 in0.0 mm 0.00 in/hr0.0 mm/hr 0.00 in0.0 mm
07:30 PM 54.9°F12.7°C 47.4°F8.6°C 76% 2.0 mph NW3.2 kmh NW 3.1 mph5.0 kmh 30.09 in1019.0 mb 0.00 in0.0 mm 0.00 in/hr0.0 mm/hr 0.00 in0.0 mm
08:00 PM 54.5°F12.5°C 47.8°F8.8°C 78% Calm Calm 1.6 mph2.6 kmh 30.10 in1019.3 mb 0.00 in0.0 mm 0.00 in/hr0.0 mm/hr 0.00 in0.0 mm
08:30 PM 54.3°F12.4°C 47.9°F8.8°C 79% 3.6 mph WSW5.8 kmh WSW 6.9 mph11.1 kmh 30.09 in1019.0 mb 0.00 in0.0 mm 0.00 in/hr0.0 mm/hr 0.00 in0.0 mm
09:00 PM 53.9°F12.2°C 47.2°F8.4°C 78% 1.8 mph SW2.9 kmh SW 4.5 mph7.2 kmh 30.10 in1019.3 mb 0.00 in0.0 mm 0.00 in/hr0.0 mm/hr 0.00 in0.0 mm
09:30 PM 52.5°F11.4°C 47.2°F8.4°C 82% 4.4 mph W7.1 kmh W 8.3 mph13.4 kmh 30.09 in1019.0 mb 0.00 in0.0 mm 0.00 in/hr0.0 mm/hr 0.00 in0.0 mm
10:00 PM 51.8°F11.0°C 46.2°F7.9°C 81% 5.5 mph W8.9 kmh W 8.3 mph13.4 kmh 30.10 in1019.3 mb 0.00 in0.0 mm 0.00 in/hr0.0 mm/hr 0.00 in0.0 mm
10:30 PM 51.2°F10.7°C 45.5°F7.5°C 81% 5.4 mph SW8.7 kmh SW 8.3 mph13.4 kmh 30.09 in1019.0 mb 0.00 in0.0 mm 0.00 in/hr0.0 mm/hr 0.00 in0.0 mm
11:00 PM 51.0°F10.6°C 45.1°F7.3°C 80% 5.8 mph SW9.3 kmh SW 9.2 mph14.8 kmh 30.09 in1019.0 mb 0.00 in0.0 mm 0.00 in/hr0.0 mm/hr 0.00 in0.0 mm
11:30 PM 50.5°F10.3°C 44.6°F7.0°C 80% 4.0 mph SW6.4 kmh SW 6.9 mph11.1 kmh 30.09 in1019.0 mb 0.00 in0.0 mm 0.00 in/hr0.0 mm/hr 0.00 in0.0 mm